LGKO Airport Information

Runway Information
Runway 14 Length 7841 ft width 148 ft
Elevation 412 ft Threshold 0 ft Heading 148
Runway 32 Length 7841 ft Width 148 ft
Elevation 373 ft Threshold 0 ft Heading 328
Airport Frequencies
Type A/G Name IPPOKRATIS Frequency 563.7 MHZ
Type APP Name APP Frequency 119.95 MHZ
Type ATIS Name ATIS Frequency 126.95 MHZ
Type TWR Name IPPOKRATIS Frequency 121.05 MHZ
Airport Navaids
Type VOR-DME Name Kos Frequency 109000 KHZ
Type NDB Name Kos Frequency 311 KHZ
Airport Weather Information & NOTAM
ADDS - METARS form results

(1531 UTC 01 December 2021)
Data provider http://aviationweather.gov/metar/data/
 
METAR text: LGKO 011520Z 31010KT 9999 FEW018 15/04 Q1017
Conditions at: LGKO (KOS AIRPORT , GR) observed 1520 UTC 01 December 2021
Temperature: 15.0°C (59°F)
Dewpoint: 4.0°C (39°F) [RH = 48%]
Pressure (altimeter): 30.03 inches Hg (1017.0 mb)
Winds: from the NW (310 degrees) at 12 MPH (10 knots; 5.1 m/s)
Visibility: 6 or more miles (10+ km)
Ceiling: at least 12,000 feet AGL
Clouds: few clouds at 1800 feet AGL
Weather: no significant weather observed at this time

METAR text: LGKO 011450Z 31010KT 9999 FEW018 15/04 Q1017
Conditions at: LGKO (KOS AIRPORT , GR) observed 1450 UTC 01 December 2021
Temperature: 15.0°C (59°F)
Dewpoint: 4.0°C (39°F) [RH = 48%]
Pressure (altimeter): 30.03 inches Hg (1017.0 mb)
Winds: from the NW (310 degrees) at 12 MPH (10 knots; 5.1 m/s)
Visibility: 6 or more miles (10+ km)
Ceiling: at least 12,000 feet AGL
Clouds: few clouds at 1800 feet AGL
Weather: no significant weather observed at this time

Forecast for: LGKO (KOS AIRPORT , GR)
Text: TAF LGKO 011100Z 0112/0212 30015KT 9999 FEW018
Forecast period: 1200 to 1900 UTC 01 December 2021
Forecast type: FROM: standard forecast or significant change
Winds: from the WNW (300 degrees) at 17 MPH (15 knots; 7.7 m/s)
Visibility: 6 or more miles (10+ km)
Ceiling: at least 12,000 feet AGL
Clouds: few clouds at 1800 feet AGL
Weather: no significant weather forecast for this period
Text: BECMG 0119/0121 VRB05KT
Forecast period: 1900 UTC 01 December 2021 to 0900 UTC 02 December 2021
Forecast type: BECOMING: Conditions expected to become as follows by 2100 UTC 01 December 2021
Winds: variable direction winds at 6 MPH (5 knots; 2.6 m/s)
Visibility: 6 or more miles (10+ km)
Ceiling: at least 12,000 feet AGL
Clouds: few clouds at 1800 feet AGL
Weather: no significant weather forecast for this period
Text: BECMG 0209/0211 21015KT FEW008 SCT018
Forecast period: 0900 to 1200 UTC 02 December 2021
Forecast type: BECOMING: Conditions expected to become as follows by 1100 UTC 02 December 2021
Winds: from the SSW (210 degrees) at 17 MPH (15 knots; 7.7 m/s)
Visibility: 6 or more miles (10+ km)
Ceiling: at least 12,000 feet AGL
Clouds: few clouds at 800 feet AGL
scattered clouds at 1800 feet AGL
Weather: no significant weather forecast for this period